createdAt,value
2022-11-05T00:01:02.014Z,100770.59
2022-11-05T00:03:47.481Z,100762.63
2022-11-05T00:06:34.208Z,100776.69
2022-11-05T00:09:19.784Z,100761.69
2022-11-05T00:12:05.253Z,100773.94
2022-11-05T00:14:50.887Z,100781.78
2022-11-05T00:17:18.840Z,100779.19
2022-11-05T00:19:46.790Z,100780.94
2022-11-05T00:22:33.642Z,100785.41
2022-11-05T00:25:20.178Z,100782.69
2022-11-05T00:27:49.683Z,100787.91
2022-11-05T00:30:20.189Z,100784.34
2022-11-05T00:32:49.502Z,100782.59
2022-11-05T00:35:18.702Z,100787.91
2022-11-05T00:37:50.292Z,100792.28
2022-11-05T00:40:18.852Z,100795.78
2022-11-05T00:43:04.402Z,100801.97
2022-11-05T00:45:32.698Z,100807.22
2022-11-05T00:48:17.929Z,100801.91
2022-11-05T00:50:45.892Z,100811.66
2022-11-05T00:53:15.167Z,100812.50
2022-11-05T00:55:45.082Z,100819.69
2022-11-05T00:58:15.604Z,100817.03
2022-11-05T01:00:45.696Z,100807.50
2022-11-05T01:03:16.029Z,100821.66
2022-11-05T01:05:45.759Z,100825.19
2022-11-05T01:08:16.625Z,100828.81
2022-11-05T01:10:46.311Z,100824.34
2022-11-05T01:13:17.747Z,100829.72
2022-11-05T01:15:46.829Z,100829.81
2022-11-05T01:18:14.996Z,100825.34
2022-11-05T01:20:42.981Z,100827.19
2022-11-05T01:23:13.751Z,100830.81
2022-11-05T01:25:43.460Z,100827.34
2022-11-05T01:28:11.627Z,100829.16
2022-11-05T01:30:39.857Z,100830.16
2022-11-05T01:33:08.085Z,100836.50
2022-11-05T01:35:36.185Z,100824.06
2022-11-05T01:38:04.196Z,100823.31
2022-11-05T01:40:32.194Z,100828.66
2022-11-05T01:43:01.523Z,100821.81
2022-11-05T01:45:30.311Z,100824.59
2022-11-05T01:48:04.266Z,100832.59
2022-11-05T01:50:38.315Z,100838.00
2022-11-05T01:53:13.204Z,100837.09
2022-11-05T01:55:45.090Z,100836.31
2022-11-05T01:58:19.411Z,100839.94
2022-11-05T02:00:47.944Z,100842.66
2022-11-05T02:03:18.032Z,100841.72
2022-11-05T02:05:47.372Z,100841.75
2022-11-05T02:08:22.936Z,100844.44
2022-11-05T02:10:51.605Z,100840.88
2022-11-05T02:13:20.920Z,100840.88
2022-11-05T02:15:59.168Z,100851.38
2022-11-05T02:18:41.052Z,100842.38
2022-11-05T02:21:34.412Z,100841.53
2022-11-05T02:24:37.702Z,100843.28
2022-11-05T02:27:17.230Z,100837.06
2022-11-05T02:30:13.517Z,100841.44
2022-11-05T02:33:00.671Z,100840.50
2022-11-05T02:35:41.070Z,100844.03
2022-11-05T02:38:14.069Z,100837.88
2022-11-05T02:40:51.485Z,100839.63
2022-11-05T02:43:26.983Z,100836.97
2022-11-05T02:46:05.639Z,100844.94
2022-11-05T02:48:46.786Z,100840.50
2022-11-05T02:51:24.431Z,100848.44
2022-11-05T02:53:59.250Z,100846.69
2022-11-05T02:56:32.247Z,100844.94
2022-11-05T02:59:00.200Z,100847.59
2022-11-05T03:01:28.257Z,100852.00
2022-11-05T03:04:00.564Z,100841.44
2022-11-05T03:07:05.324Z,100848.50
2022-11-05T03:09:48.416Z,100817.78
2022-11-05T03:12:25.930Z,100847.63
2022-11-05T03:15:04.103Z,100844.09
2022-11-05T03:17:42.904Z,100851.16
2022-11-05T03:20:20.605Z,100852.94
2022-11-05T03:22:55.470Z,100855.56
2022-11-05T03:25:27.682Z,100856.53
2022-11-05T03:27:59.728Z,100864.50
2022-11-05T03:30:27.912Z,100861.00
2022-11-05T03:33:00.520Z,100859.31
2022-11-05T03:35:32.798Z,100867.19
2022-11-05T03:38:04.607Z,100868.09
2022-11-05T03:40:35.969Z,100869.06
2022-11-05T03:43:08.799Z,100866.41
2022-11-05T03:45:39.660Z,100871.63
2022-11-05T03:48:11.108Z,100873.44
2022-11-05T03:50:46.032Z,100873.41
2022-11-05T03:53:17.240Z,100870.81
2022-11-05T03:55:52.228Z,100877.78
2022-11-05T03:58:23.098Z,100883.13
2022-11-05T04:00:52.203Z,100885.81
2022-11-05T04:03:20.333Z,100885.78
2022-11-05T04:06:10.269Z,100884.94
2022-11-05T04:08:55.630Z,100884.94
2022-11-05T04:11:41.185Z,100887.59
2022-11-05T04:14:09.174Z,100886.78
2022-11-05T04:16:54.650Z,100886.81
2022-11-05T04:19:36.510Z,100886.84
2022-11-05T04:22:23.535Z,100892.13
2022-11-05T04:24:51.491Z,100899.19
2022-11-05T04:27:19.507Z,100895.72
2022-11-05T04:30:05.087Z,100896.56
2022-11-05T04:32:33.091Z,100895.69
2022-11-05T04:35:01.019Z,100903.66
2022-11-05T04:37:30.398Z,100907.22
2022-11-05T04:39:58.330Z,100915.16
2022-11-05T04:42:26.278Z,100911.66
2022-11-05T04:44:54.296Z,100906.38
2022-11-05T04:47:22.250Z,100914.31
2022-11-05T04:49:50.313Z,100909.88
2022-11-05T04:52:18.332Z,100914.28
2022-11-05T04:54:47.729Z,100908.94
2022-11-05T04:57:15.720Z,100912.50
2022-11-05T04:59:43.688Z,100912.53
2022-11-05T05:02:11.692Z,100909.88
2022-11-05T05:04:39.843Z,100910.75
2022-11-05T05:07:07.773Z,100917.81
2022-11-05T05:09:35.763Z,100920.44
2022-11-05T05:12:05.281Z,100924.00
2022-11-05T05:14:33.204Z,100925.72
2022-11-05T05:17:01.375Z,100925.72
2022-11-05T05:19:29.543Z,100926.69
2022-11-05T05:21:56.460Z,100917.81
2022-11-05T05:24:25.028Z,100918.72
2022-11-05T05:26:53.010Z,100920.47
2022-11-05T05:29:22.320Z,100915.19
2022-11-05T05:31:50.288Z,100916.03
2022-11-05T05:34:18.220Z,100932.81
2022-11-05T05:36:46.219Z,100931.03
2022-11-05T05:39:14.186Z,100934.56
2022-11-05T05:41:42.103Z,100937.19
2022-11-05T05:44:10.092Z,100939.88
2022-11-05T05:46:39.546Z,100921.44
2022-11-05T05:49:12.141Z,100937.25
2022-11-05T05:51:40.898Z,100942.56
2022-11-05T05:54:11.366Z,100948.69
2022-11-05T05:56:39.294Z,100946.13
2022-11-05T05:59:07.470Z,100946.09
2022-11-05T06:01:35.591Z,100948.75
2022-11-05T06:04:05.390Z,100948.78
2022-11-05T06:06:33.582Z,100945.25
2022-11-05T06:09:01.543Z,100959.34
2022-11-05T06:11:29.662Z,100969.09
2022-11-05T06:13:57.731Z,100970.84
2022-11-05T06:16:25.685Z,100967.31
2022-11-05T06:18:53.702Z,100977.91
2022-11-05T06:21:23.160Z,100979.69
2022-11-05T06:23:51.079Z,100975.25
2022-11-05T06:26:20.083Z,100976.16
2022-11-05T06:28:48.174Z,100979.66
2022-11-05T06:31:16.476Z,100974.34
2022-11-05T06:33:44.715Z,100984.03
2022-11-05T06:36:15.843Z,100992.03
2022-11-05T06:38:45.236Z,100992.03
2022-11-05T06:41:13.376Z,100992.03
2022-11-05T06:43:41.388Z,100998.19
2022-11-05T06:46:11.131Z,100995.56
2022-11-05T06:48:39.819Z,100996.41
2022-11-05T06:51:08.940Z,101000.81
2022-11-05T06:53:37.095Z,100999.03
2022-11-05T06:56:08.157Z,101001.66
2022-11-05T06:58:36.481Z,101001.66
2022-11-05T07:01:07.816Z,101006.06
2022-11-05T07:03:36.550Z,101008.72
2022-11-05T07:06:06.331Z,101008.69
2022-11-05T07:08:35.494Z,101012.22
2022-11-05T07:11:03.747Z,101009.59
2022-11-05T07:13:33.428Z,101009.59
2022-11-05T07:16:01.394Z,101017.53
2022-11-05T07:18:29.372Z,101015.75
2022-11-05T07:20:57.294Z,101015.75
2022-11-05T07:23:25.380Z,101021.91
2022-11-05T07:25:53.547Z,101009.50
2022-11-05T07:28:21.495Z,101020.09
2022-11-05T07:30:50.788Z,101024.47
2022-11-05T07:33:18.771Z,101025.31
2022-11-05T07:35:46.908Z,101025.28
2022-11-05T07:38:14.828Z,101022.63
2022-11-05T07:40:42.807Z,101034.94
2022-11-05T07:43:10.970Z,101039.34
2022-11-05T07:45:39.187Z,101040.19
2022-11-05T07:48:08.866Z,101041.09
2022-11-05T07:50:38.062Z,101056.06
2022-11-05T07:53:07.774Z,101047.19
2022-11-05T07:55:35.942Z,101053.38
2022-11-05T07:58:04.882Z,101056.84
2022-11-05T08:00:33.905Z,101056.84
2022-11-05T08:03:07.904Z,101054.16
2022-11-05T08:05:39.905Z,101054.09
2022-11-05T08:08:09.195Z,101054.06
2022-11-05T08:10:37.920Z,101039.88
2022-11-05T08:13:06.971Z,101047.78
2022-11-05T08:15:35.540Z,101044.16
2022-11-05T08:18:05.928Z,101045.91
2022-11-05T08:20:34.640Z,101040.53
2022-11-05T08:23:04.012Z,101049.31
2022-11-05T08:25:32.745Z,101058.97
2022-11-05T08:28:02.307Z,101058.00
2022-11-05T08:30:31.332Z,101067.63
2022-11-05T08:33:00.620Z,101058.75
2022-11-05T08:35:29.536Z,101057.81
2022-11-05T08:37:59.161Z,101056.00
2022-11-05T08:40:28.638Z,101063.03
2022-11-05T08:42:57.731Z,101062.09
2022-11-05T08:45:25.839Z,101060.25
2022-11-05T08:47:59.859Z,101058.50
2022-11-05T08:50:27.943Z,101062.81
2022-11-05T08:52:55.928Z,101076.03
2022-11-05T08:55:24.111Z,101068.00
2022-11-05T08:57:57.647Z,101068.78
2022-11-05T09:00:26.092Z,101074.03
2022-11-05T09:02:54.029Z,101064.22
2022-11-05T09:05:22.477Z,101078.28
2022-11-05T09:07:50.443Z,101070.28
2022-11-05T09:10:29.981Z,101063.09
2022-11-05T09:12:59.317Z,101056.81
2022-11-05T09:15:27.580Z,101049.75
2022-11-05T09:17:56.369Z,101065.47
2022-11-05T09:20:24.844Z,101070.66
2022-11-05T09:22:53.038Z,101074.09
2022-11-05T09:25:21.035Z,101070.47
2022-11-05T09:27:48.952Z,101076.56
2022-11-05T09:30:18.476Z,101081.88
2022-11-05T09:32:46.451Z,101087.91
2022-11-05T09:35:14.453Z,101088.59
2022-11-05T09:37:42.409Z,101086.75
2022-11-05T09:40:17.428Z,101085.81
2022-11-05T09:42:47.227Z,101061.13
2022-11-05T09:45:21.209Z,101078.53
2022-11-05T09:47:52.364Z,101088.22
2022-11-05T09:50:24.048Z,101089.03
2022-11-05T09:52:52.151Z,101090.69
2022-11-05T09:55:24.619Z,101088.88
2022-11-05T09:57:59.357Z,101090.41
2022-11-05T10:00:29.998Z,101088.53
2022-11-05T10:03:02.068Z,101097.38
2022-11-05T10:05:31.046Z,101106.06
2022-11-05T10:08:03.972Z,101092.66
2022-11-05T10:10:41.094Z,101095.19
2022-11-05T10:13:19.354Z,101092.44
2022-11-05T10:15:56.587Z,101102.94
2022-11-05T10:18:29.182Z,101101.88
2022-11-05T10:20:57.840Z,101100.06
2022-11-05T10:23:28.750Z,101102.69
2022-11-05T10:25:59.963Z,101105.22
2022-11-05T10:28:29.991Z,101113.94
2022-11-05T10:31:01.859Z,101107.53
2022-11-05T10:33:34.480Z,101072.38
2022-11-05T10:36:06.774Z,101102.09
2022-11-05T10:38:35.002Z,101104.69
2022-11-05T10:41:20.739Z,101104.44
2022-11-05T10:43:51.541Z,101111.56
2022-11-05T10:46:33.488Z,101093.66
2022-11-05T10:49:31.476Z,101118.22
2022-11-05T10:52:04.384Z,101109.97
2022-11-05T10:54:36.164Z,101114.31
2022-11-05T10:57:34.153Z,101114.19
2022-11-05T11:00:25.943Z,101111.38
2022-11-05T11:02:57.964Z,101105.91
2022-11-05T11:05:29.540Z,101099.06
2022-11-05T11:08:03.591Z,101104.06
2022-11-05T11:10:35.691Z,101114.84
2022-11-05T11:13:04.046Z,101101.41
2022-11-05T11:15:35.040Z,101095.16
2022-11-05T11:18:26.691Z,101106.38
2022-11-05T11:20:54.840Z,101101.75
2022-11-05T11:23:22.864Z,101101.69
2022-11-05T11:25:53.810Z,101096.38
2022-11-05T11:28:26.802Z,101103.56
2022-11-05T11:31:04.448Z,101096.34
2022-11-05T11:33:35.064Z,101110.53
2022-11-05T11:36:03.600Z,101104.19
2022-11-05T11:38:34.208Z,101111.28
2022-11-05T11:41:10.158Z,101103.19
2022-11-05T11:43:41.020Z,101104.81
2022-11-05T11:46:16.110Z,101086.47
2022-11-05T11:48:47.609Z,101101.97
2022-11-05T11:51:22.501Z,101110.94
2022-11-05T11:53:50.723Z,101097.53
2022-11-05T11:56:20.937Z,101102.84
2022-11-05T11:58:50.968Z,101096.78
2022-11-05T12:01:46.238Z,101100.34
2022-11-05T12:04:55.027Z,101092.25
2022-11-05T12:07:37.136Z,101104.66
2022-11-05T12:10:31.136Z,101098.31
2022-11-05T12:13:15.649Z,101099.13
2022-11-05T12:15:50.643Z,101100.03
2022-11-05T12:18:26.605Z,101101.75
2022-11-05T12:21:08.883Z,101076.28
2022-11-05T12:24:08.529Z,101094.53
2022-11-05T12:26:46.275Z,101098.06
2022-11-05T12:29:35.782Z,101095.50
2022-11-05T12:32:48.817Z,101101.50
2022-11-05T12:35:35.763Z,101101.47
2022-11-05T12:38:16.337Z,101095.03
2022-11-05T12:40:54.341Z,101102.03
2022-11-05T12:43:32.118Z,101096.69
2022-11-05T12:46:10.049Z,101097.47
2022-11-05T12:48:56.760Z,101096.75
2022-11-05T12:51:38.154Z,101103.75
2022-11-05T12:54:21.537Z,101094.97
2022-11-05T12:56:54.158Z,101104.06
2022-11-05T12:59:25.590Z,101091.88
2022-11-05T13:01:58.661Z,101099.63
2022-11-05T13:04:34.944Z,101103.94
2022-11-05T13:07:06.764Z,101108.31
2022-11-05T13:09:41.296Z,101110.78
2022-11-05T13:12:13.912Z,101108.88
2022-11-05T13:14:49.446Z,101107.81
2022-11-05T13:17:21.085Z,101104.97
2022-11-05T13:19:53.345Z,101114.59
2022-11-05T13:22:32.250Z,101108.31
2022-11-05T13:25:06.276Z,101106.34
2022-11-05T13:27:47.929Z,101100.91
2022-11-05T13:30:19.631Z,101093.84
2022-11-05T13:32:52.852Z,101089.47
2022-11-05T13:35:26.361Z,101091.06
2022-11-05T13:38:17.332Z,101083.09
2022-11-05T13:40:59.226Z,101090.31
2022-11-05T13:43:41.140Z,101091.41
2022-11-05T13:46:29.308Z,101094.84
2022-11-05T13:49:20.882Z,101092.97
2022-11-05T13:51:52.936Z,101103.56
2022-11-05T13:54:59.081Z,101101.75
2022-11-05T13:57:49.156Z,101093.84
2022-11-05T14:00:20.143Z,101085.97
2022-11-05T14:02:52.355Z,101092.97
2022-11-05T14:05:29.278Z,101087.63
2022-11-05T14:07:59.223Z,101076.34
2022-11-05T14:10:33.177Z,101091.22
2022-11-05T14:13:17.380Z,101092.22
2022-11-05T14:15:57.747Z,101092.34
2022-11-05T14:18:44.400Z,101101.19
2022-11-05T14:21:49.719Z,101088.53
2022-11-05T14:24:43.122Z,101088.50
2022-11-05T14:27:49.258Z,101088.28
2022-11-05T14:30:44.886Z,101092.69
2022-11-05T14:33:19.016Z,101089.94
2022-11-05T14:35:46.959Z,101100.13
2022-11-05T14:38:21.312Z,101095.09
2022-11-05T14:40:50.610Z,101098.63
2022-11-05T14:43:22.628Z,101101.34
2022-11-05T14:45:58.297Z,101102.41
2022-11-05T14:48:35.714Z,101102.81
2022-11-05T14:51:10.786Z,101115.47
2022-11-05T14:53:41.338Z,101108.66
2022-11-05T14:56:13.174Z,101111.56
2022-11-05T14:58:42.524Z,101118.06
2022-11-05T15:01:53.757Z,101116.44
2022-11-05T15:04:28.048Z,101106.81
2022-11-05T15:07:29.429Z,101107.78
2022-11-05T15:10:07.222Z,101109.72
2022-11-05T15:12:41.367Z,101114.28
2022-11-05T15:15:22.180Z,101118.72
2022-11-05T15:18:01.890Z,101118.84
2022-11-05T15:20:40.142Z,101112.72
2022-11-05T15:23:13.150Z,101113.75
2022-11-05T15:25:53.141Z,101116.47
2022-11-05T15:28:28.643Z,101119.22
2022-11-05T15:30:59.287Z,101113.19
2022-11-05T15:33:28.877Z,101107.94
2022-11-05T15:35:57.581Z,101115.09
2022-11-05T15:38:31.446Z,101119.66
2022-11-05T15:41:01.563Z,101127.75
2022-11-05T15:43:30.195Z,101129.63
2022-11-05T15:46:03.921Z,101125.25
2022-11-05T15:48:34.040Z,101119.97
2022-11-05T15:51:02.345Z,101129.81
2022-11-05T15:54:02.218Z,101129.84
2022-11-05T15:56:30.136Z,101133.50
2022-11-05T15:59:02.273Z,101135.28
2022-11-05T16:01:32.957Z,101130.91
2022-11-05T16:04:12.147Z,101128.28
2022-11-05T16:06:44.047Z,101122.97
2022-11-05T16:09:23.700Z,101121.25
2022-11-05T16:12:12.253Z,101116.84
2022-11-05T16:14:40.304Z,101123.09
2022-11-05T16:17:18.005Z,101124.00
2022-11-05T16:19:48.438Z,101114.25
2022-11-05T16:22:16.859Z,101124.00
2022-11-05T16:24:45.470Z,101126.66
2022-11-05T16:27:19.451Z,101129.34
2022-11-05T16:29:55.536Z,101125.03
2022-11-05T16:32:30.632Z,101124.06
2022-11-05T16:35:03.039Z,101126.78
2022-11-05T16:37:39.696Z,101126.00
2022-11-05T16:40:14.757Z,101126.97
2022-11-05T16:42:43.295Z,101124.31
2022-11-05T16:45:13.937Z,101135.84
2022-11-05T16:47:43.066Z,101137.66
2022-11-05T16:50:17.208Z,101130.59
2022-11-05T16:52:46.178Z,101141.28
2022-11-05T16:55:14.972Z,101142.16
2022-11-05T16:57:44.608Z,101144.84
2022-11-05T17:00:16.291Z,101137.81
2022-11-05T17:02:45.227Z,101149.38
2022-11-05T17:05:22.008Z,101141.41
2022-11-05T17:07:50.049Z,101148.56
2022-11-05T17:10:18.483Z,101143.38
2022-11-05T17:12:46.931Z,101145.97
2022-11-05T17:15:20.642Z,101141.59
2022-11-05T17:17:49.162Z,101146.00
2022-11-05T17:20:27.487Z,101152.22
2022-11-05T17:22:55.564Z,101161.09
2022-11-05T17:25:24.082Z,101161.19
2022-11-05T17:27:52.455Z,101154.97
2022-11-05T17:30:20.991Z,101161.28
2022-11-05T17:32:48.981Z,101166.63
2022-11-05T17:35:17.535Z,101169.41
2022-11-05T17:37:47.409Z,101168.56
2022-11-05T17:40:17.405Z,101174.78
2022-11-05T17:42:45.913Z,101159.88
2022-11-05T17:45:14.578Z,101174.91
2022-11-05T17:47:43.373Z,101166.00
2022-11-05T17:50:13.394Z,101167.88
2022-11-05T17:52:41.551Z,101160.75
2022-11-05T17:55:16.681Z,101168.75
2022-11-05T17:57:46.199Z,101169.69
2022-11-05T18:00:15.765Z,101163.41
2022-11-05T18:02:43.863Z,101164.25
2022-11-05T18:05:12.245Z,101166.84
2022-11-05T18:07:40.307Z,101172.19
2022-11-05T18:10:10.111Z,101180.13
2022-11-05T18:12:38.448Z,101173.03
2022-11-05T18:15:08.316Z,101169.38
2022-11-05T18:17:36.659Z,101166.66
2022-11-05T18:20:07.223Z,101164.81
2022-11-05T18:22:35.316Z,101141.97
2022-11-05T18:25:05.169Z,101156.91
2022-11-05T18:27:35.144Z,101160.47
2022-11-05T18:30:03.725Z,101162.25
2022-11-05T18:32:31.811Z,101155.16
2022-11-05T18:34:59.843Z,101159.56
2022-11-05T18:37:27.871Z,101156.09
2022-11-05T18:39:55.844Z,101157.91
2022-11-05T18:42:24.580Z,101157.94
2022-11-05T18:44:53.845Z,101158.84
2022-11-05T18:47:21.799Z,101142.06
2022-11-05T18:49:49.837Z,101142.94
2022-11-05T18:52:17.789Z,101142.09
2022-11-05T18:54:45.886Z,101144.81
2022-11-05T18:57:13.853Z,101138.56
2022-11-05T18:59:46.608Z,101139.44
2022-11-05T19:02:16.505Z,101134.16
2022-11-05T19:05:00.682Z,101135.97
2022-11-05T19:07:33.222Z,101139.53
2022-11-05T19:10:01.224Z,101142.25
2022-11-05T19:12:29.241Z,101146.69
2022-11-05T19:15:02.158Z,101146.66
2022-11-05T19:17:33.297Z,101141.44
2022-11-05T19:20:01.406Z,101150.28
2022-11-05T19:22:29.489Z,101125.63
2022-11-05T19:24:57.448Z,101146.75
2022-11-05T19:27:25.707Z,101135.28
2022-11-05T19:29:53.734Z,101137.97
2022-11-05T19:32:21.945Z,101142.34
2022-11-05T19:34:51.274Z,101137.13
2022-11-05T19:37:19.921Z,101138.00
2022-11-05T19:39:47.939Z,101124.91
2022-11-05T19:42:15.895Z,101144.22
2022-11-05T19:44:44.478Z,101145.94
2022-11-05T19:47:12.410Z,101147.75
2022-11-05T19:49:40.340Z,101151.31
2022-11-05T19:52:09.728Z,101152.16
2022-11-05T19:54:38.603Z,101145.97
2022-11-05T19:57:06.653Z,101154.88
2022-11-05T19:59:34.729Z,101149.56
2022-11-05T20:02:02.816Z,101148.75
2022-11-05T20:04:31.248Z,101145.13
2022-11-05T20:06:59.620Z,101147.84
2022-11-05T20:09:29.173Z,101158.41
2022-11-05T20:11:57.417Z,101153.94
2022-11-05T20:14:26.733Z,101148.63
2022-11-05T20:16:55.415Z,101153.91
2022-11-05T20:19:24.046Z,101149.53
2022-11-05T20:21:52.376Z,101153.06
2022-11-05T20:24:25.296Z,101147.81
2022-11-05T20:26:56.772Z,101142.50
2022-11-05T20:29:30.500Z,101151.38
2022-11-05T20:32:03.210Z,101146.97
2022-11-05T20:34:31.875Z,101147.81
2022-11-05T20:36:59.916Z,101145.16
2022-11-05T20:39:28.136Z,101146.06
2022-11-05T20:41:57.534Z,101154.91
2022-11-05T20:44:25.577Z,101149.69
2022-11-05T20:46:53.643Z,101147.00
2022-11-05T20:49:25.356Z,101153.19
2022-11-05T20:51:54.099Z,101149.69
2022-11-05T20:54:22.200Z,101150.59
2022-11-05T20:56:50.222Z,101141.69
2022-11-05T20:59:19.731Z,101147.94
2022-11-05T21:01:47.760Z,101143.47
2022-11-05T21:04:15.866Z,101143.50
2022-11-05T21:06:43.913Z,101140.06
2022-11-05T21:09:13.787Z,101144.50
2022-11-05T21:11:55.659Z,101149.81
2022-11-05T21:14:24.962Z,101154.25
2022-11-05T21:16:53.083Z,101141.06
2022-11-05T21:19:23.850Z,101161.38
2022-11-05T21:21:51.798Z,101161.44
2022-11-05T21:24:19.734Z,101161.44
2022-11-05T21:26:49.932Z,101163.22
2022-11-05T21:29:18.221Z,101134.09
2022-11-05T21:31:48.074Z,101164.97
2022-11-05T21:34:16.779Z,101145.47
2022-11-05T21:36:44.812Z,101143.66
2022-11-05T21:39:13.866Z,101151.59
2022-11-05T21:41:42.624Z,101132.97
2022-11-05T21:44:10.887Z,101136.56
2022-11-05T21:46:38.930Z,101137.44
2022-11-05T21:49:08.261Z,101138.34
2022-11-05T21:51:53.454Z,101122.41
2022-11-05T21:54:38.977Z,101129.44
2022-11-05T21:57:26.945Z,101125.91
2022-11-05T21:59:57.505Z,101128.59
2022-11-05T22:02:28.459Z,101132.00
2022-11-05T22:05:00.075Z,101133.06
2022-11-05T22:07:30.476Z,101128.53
2022-11-05T22:09:58.494Z,101125.88
2022-11-05T22:12:26.668Z,101124.94
2022-11-05T22:14:55.095Z,101107.50
2022-11-05T22:17:23.053Z,101119.63
2022-11-05T22:19:51.305Z,101116.97
2022-11-05T22:22:20.620Z,101117.91
2022-11-05T22:24:48.717Z,101118.81
2022-11-05T22:27:20.536Z,101122.38
2022-11-05T22:29:48.490Z,101105.53
2022-11-05T22:32:17.089Z,101113.50
2022-11-05T22:34:45.276Z,101114.38
2022-11-05T22:37:13.822Z,101104.63
2022-11-05T22:39:43.133Z,101101.91
2022-11-05T22:42:11.298Z,101098.44
2022-11-05T22:44:39.285Z,101099.38
2022-11-05T22:47:07.721Z,101102.03
2022-11-05T22:49:35.938Z,101099.38
2022-11-05T22:52:04.156Z,101085.19
2022-11-05T22:54:37.891Z,101097.59
2022-11-05T22:57:08.641Z,101102.00
2022-11-05T22:59:36.668Z,101094.94
2022-11-05T23:02:09.434Z,101087.03
2022-11-05T23:04:39.123Z,101089.63
2022-11-05T23:07:27.697Z,101089.66
2022-11-05T23:10:14.316Z,101099.44
2022-11-05T23:12:44.595Z,101092.31
2022-11-05T23:15:34.335Z,101090.50
2022-11-05T23:18:19.722Z,101088.78
2022-11-05T23:21:05.252Z,101095.97
2022-11-05T23:23:50.688Z,101093.28
2022-11-05T23:26:41.710Z,101089.78
2022-11-05T23:29:11.068Z,101082.69
2022-11-05T23:31:56.691Z,101077.38
2022-11-05T23:34:24.630Z,101071.19
2022-11-05T23:37:10.321Z,101075.59
2022-11-05T23:39:42.348Z,101064.03
2022-11-05T23:42:28.727Z,101070.16
2022-11-05T23:45:15.635Z,101062.97
2022-11-05T23:48:01.763Z,101031.31
2022-11-05T23:50:34.466Z,101047.84
2022-11-05T23:53:06.463Z,101045.22
2022-11-05T23:55:34.563Z,101046.88
2022-11-05T23:58:02.506Z,101033.59
